Time;durP1;ratioP1;P1;durP2;ratioP2;P2;SDS_P1;SDS_P2;PMS_P1;PMS_P2;Temp;Humidity;BMP_temperature;BMP_pressure;BME280_temperature;BME280_humidity;BME280_pressure;Samples;Min_cycle;Max_cycle;Signal;HPM_P1;HPM_P2
2021/07/29 00:01:21;;;;;;;6.65;2.72;;;;;;;17.67;82.44;100660.25;6248528;28;20057;-76
2021/07/29 00:04:22;;;;;;;4.32;2.55;;;;;;;17.66;82.93;100659.38;6248532;28;20520;-76
2021/07/29 00:07:23;;;;;;;8.68;2.83;;;;;;;17.70;82.42;100667.94;6248585;28;20057;-76
2021/07/29 00:10:27;;;;;;;5.30;2.58;;;;;;;17.68;82.75;100656.63;6248288;28;20042;-76
2021/07/29 00:13:28;;;;;;;6.60;2.80;;;;;;;17.69;82.59;100656.47;6248647;28;20053;-76
2021/07/29 00:16:33;;;;;;;6.80;2.40;;;;;;;17.69;82.62;100653.81;6248523;28;20056;-76
2021/07/29 00:19:34;;;;;;;4.55;2.50;;;;;;;17.67;82.66;100649.63;6248366;28;20050;-76
2021/07/29 00:22:35;;;;;;;7.55;2.90;;;;;;;17.67;82.39;100647.81;6248091;28;20064;-76
2021/07/29 00:25:36;;;;;;;3.95;2.85;;;;;;;17.69;82.38;100642.34;6247992;28;20076;-76
2021/07/29 00:28:37;;;;;;;6.65;2.60;;;;;;;17.72;81.69;100642.09;6248290;28;20608;-76
2021/07/29 00:31:40;;;;;;;6.63;2.42;;;;;;;17.68;82.62;100641.50;6247750;28;20049;-76
2021/07/29 00:34:42;;;;;;;7.78;2.80;;;;;;;17.65;82.64;100630.28;6248144;28;20049;-76
2021/07/29 00:37:44;;;;;;;6.97;2.60;;;;;;;17.60;82.10;100632.50;6247647;28;20424;-76
2021/07/29 00:40:46;;;;;;;5.15;2.40;;;;;;;17.61;82.24;100631.53;6247752;28;20046;-76
2021/07/29 00:43:47;;;;;;;4.60;2.60;;;;;;;17.53;82.80;100621.53;6247703;28;20393;-76
2021/07/29 00:46:50;;;;;;;10.35;3.65;;;;;;;17.43;85.16;100620.63;6247742;28;20195;-76
2021/07/29 00:49:52;;;;;;;6.85;2.65;;;;;;;17.33;83.52;100623.22;6247332;28;20045;-76
2021/07/29 00:52:53;;;;;;;6.50;2.53;;;;;;;17.21;85.23;100617.13;6247421;28;20520;-75
2021/07/29 00:55:56;;;;;;;5.93;2.45;;;;;;;17.11;85.28;100607.38;6247340;28;20061;-76
2021/07/29 00:58:57;;;;;;;6.82;3.22;;;;;;;17.14;85.00;100617.75;6247194;28;20047;-76
2021/07/29 01:02:00;;;;;;;5.22;2.40;;;;;;;17.14;86.21;100610.63;6247346;28;20166;-76
2021/07/29 01:05:01;;;;;;;5.13;2.40;;;;;;;17.19;87.20;100602.28;6247240;28;20060;-76
2021/07/29 01:08:03;;;;;;;8.15;2.97;;;;;;;17.22;86.08;100604.69;6246875;28;20515;-76
2021/07/29 01:11:04;;;;;;;6.80;2.40;;;;;;;17.22;86.23;100604.69;6246801;28;20060;-76
2021/07/29 01:14:06;;;;;;;3.45;2.30;;;;;;;17.22;85.03;100604.69;6247299;28;20172;-76
2021/07/29 01:17:09;;;;;;;5.03;2.67;;;;;;;17.23;83.16;100607.22;6246865;28;20045;-76
2021/07/29 01:20:18;;;;;;;4.18;2.45;;;;;;;17.28;83.42;100609.47;6247074;28;20052;-76
2021/07/29 01:23:19;;;;;;;2.90;2.00;;;;;;;17.30;81.06;100609.34;6246944;28;20057;-75
2021/07/29 01:26:20;;;;;;;5.15;2.13;;;;;;;17.23;80.36;100607.22;6246957;28;20057;-76
2021/07/29 01:29:22;;;;;;;4.30;2.20;;;;;;;17.28;81.09;100612.13;6246937;28;20041;-76
2021/07/29 01:32:24;;;;;;;4.03;2.08;;;;;;;17.20;81.00;100612.78;6246539;28;20057;-76
2021/07/29 01:35:27;;;;;;;4.22;2.40;;;;;;;17.13;82.00;100605.47;6246668;28;20527;-76
2021/07/29 01:38:28;;;;;;;3.42;2.00;;;;;;;17.07;84.21;100601.47;6246504;28;20045;-76
2021/07/29 01:41:29;;;;;;;7.55;2.35;;;;;;;17.02;83.62;100594.88;6246632;28;20049;-77
2021/07/29 01:44:31;;;;;;;3.70;2.17;;;;;;;17.02;82.82;100600.19;6246761;28;20061;-76
2021/07/29 01:47:32;;;;;;;2.42;1.88;;;;;;;17.01;82.82;100596.69;6246733;28;20052;-77
2021/07/29 01:50:35;;;;;;;7.20;2.28;;;;;;;16.96;82.83;100597.06;6246527;28;20045;-76
2021/07/29 01:53:36;;;;;;;3.53;2.05;;;;;;;16.99;82.27;100590.69;6246810;28;20053;-76
2021/07/29 01:56:37;;;;;;;3.70;2.30;;;;;;;16.99;81.58;100596.00;6246563;28;20521;-77
2021/07/29 01:59:39;;;;;;;5.25;2.22;;;;;;;16.92;81.00;100571.75;6246292;28;20049;-76
2021/07/29 02:02:40;;;;;;;2.75;1.85;;;;;;;16.90;80.12;100576.34;6246379;28;20072;-76
2021/07/29 02:05:43;;;;;;;4.57;2.30;;;;;;;16.88;80.78;100580.09;6246319;28;20049;-76
2021/07/29 02:08:44;;;;;;;3.53;1.88;;;;;;;16.84;81.63;100574.19;6246396;28;20049;-76
2021/07/29 02:11:49;;;;;;;6.47;2.72;;;;;;;16.80;82.43;100580.72;6246014;28;20349;-76
2021/07/29 02:14:50;;;;;;;4.43;2.30;;;;;;;16.82;81.72;100584.09;6246676;28;20050;-76
2021/07/29 02:17:55;;;;;;;4.25;2.25;;;;;;;16.83;82.01;100583.13;6246008;28;20060;-76
2021/07/29 02:20:58;;;;;;;4.03;2.45;;;;;;;16.81;82.50;100584.22;6249390;28;20381;-76
2021/07/29 02:23:59;;;;;;;5.80;2.20;;;;;;;16.84;82.24;100584.78;6250818;28;20046;-76
2021/07/29 02:27:00;;;;;;;6.50;2.60;;;;;;;16.79;82.04;100572.88;6251053;28;20523;-76
2021/07/29 02:30:01;;;;;;;4.05;2.35;;;;;;;16.78;83.61;100577.34;6250561;28;20041;-76
2021/07/29 02:33:03;;;;;;;8.50;2.10;;;;;;;16.77;83.98;100573.00;6250891;28;20076;-77
2021/07/29 02:36:06;;;;;;;7.40;2.55;;;;;;;16.76;83.79;100573.13;6250538;28;20049;-75
2021/07/29 02:39:07;;;;;;;4.20;2.88;;;;;;;16.79;84.20;100573.72;6250588;28;20436;-76
2021/07/29 02:42:09;;;;;;;4.78;2.47;;;;;;;16.72;84.50;100570.75;6250294;28;20049;-76
2021/07/29 02:45:11;;;;;;;7.13;2.58;;;;;;;16.71;85.03;100566.38;6250391;28;20393;-76
2021/07/29 02:48:12;;;;;;;4.53;2.10;;;;;;;16.68;85.95;100569.28;6250547;28;20053;-76
2021/07/29 02:51:15;;;;;;;8.30;2.42;;;;;;;16.60;86.07;100566.41;6250056;28;20605;-76
2021/07/29 02:54:16;;;;;;;7.82;2.42;;;;;;;16.52;87.71;100579.44;6250352;28;20056;-76
2021/07/29 02:57:18;;;;;;;6.30;3.15;;;;;;;16.50;87.48;100586.69;6250102;28;20068;-76
2021/07/29 03:00:19;;;;;;;4.72;2.47;;;;;;;16.49;88.29;100577.03;6249968;28;20196;-77
2021/07/29 03:03:21;;;;;;;7.80;2.70;;;;;;;16.47;88.69;100584.28;6250079;28;20049;-76
2021/07/29 03:06:23;;;;;;;6.05;2.70;;;;;;;16.46;89.22;100583.44;6250160;28;20061;-76
2021/07/29 03:09:25;;;;;;;4.88;2.25;;;;;;;16.47;89.43;100579.81;6249987;28;20042;-76
2021/07/29 03:12:26;;;;;;;5.88;3.20;;;;;;;16.44;89.80;100577.41;6249446;28;20390;-76
2021/07/29 03:15:29;;;;;;;4.50;2.60;;;;;;;16.45;89.96;100575.59;6249713;28;20060;-76
2021/07/29 03:18:30;;;;;;;5.15;2.72;;;;;;;16.42;90.24;100586.44;6249501;28;20064;-76
2021/07/29 03:21:33;;;;;;;6.38;2.92;;;;;;;16.46;90.17;100591.38;6249476;28;20049;-76
2021/07/29 03:24:34;;;;;;;7.00;2.97;;;;;;;16.45;90.76;100579.09;6249558;28;20052;-76
2021/07/29 03:27:36;;;;;;;5.88;2.88;;;;;;;16.46;90.78;100591.38;6249574;28;20053;-76
2021/07/29 03:30:37;;;;;;;6.25;2.75;;;;;;;16.44;91.23;100581.84;6268006;28;20048;-76
2021/07/29 03:33:38;;;;;;;6.25;2.85;;;;;;;16.42;91.65;100591.75;6265904;28;20504;-76
2021/07/29 03:36:41;;;;;;;5.80;2.60;;;;;;;16.42;90.18;100592.59;6273903;28;20056;-77
2021/07/29 03:39:42;;;;;;;5.05;2.85;;;;;;;16.44;90.79;100585.38;6273981;28;20040;-76
2021/07/29 03:42:44;;;;;;;7.93;2.30;;;;;;;16.41;90.23;100601.53;6265407;28;20068;-76
2021/07/29 03:45:45;;;;;;;5.20;2.60;;;;;;;16.45;89.38;100596.81;6273631;28;20048;-76
2021/07/29 03:48:46;;;;;;;4.72;2.65;;;;;;;16.46;89.04;100591.38;6273912;28;20060;-75
2021/07/29 03:51:49;;;;;;;5.60;2.58;;;;;;;16.41;89.97;100606.00;6273375;28;20052;-76
2021/07/29 03:54:51;;;;;;;5.55;2.38;;;;;;;16.35;92.25;100602.03;6273651;28;20053;-75
2021/07/29 03:57:52;;;;;;;4.70;2.70;;;;;;;16.31;91.64;100610.34;6273736;28;20056;-76
2021/07/29 04:00:56;;;;;;;5.28;2.28;;;;;;;16.32;91.43;100601.44;6273206;28;20408;-76
2021/07/29 04:03:57;;;;;;;6.18;2.95;;;;;;;16.35;88.99;100617.06;6273418;28;20135;-76
2021/07/29 04:07:00;;;;;;;4.78;1.92;;;;;;;16.36;89.81;100600.22;6273295;28;20049;-76
2021/07/29 04:10:02;;;;;;;4.68;2.35;;;;;;;16.34;90.49;100602.13;6273121;28;20045;-76
2021/07/29 04:13:04;;;;;;;9.10;2.72;;;;;;;16.34;89.69;100608.28;6273206;28;20527;-76
2021/07/29 04:16:05;;;;;;;6.82;2.63;;;;;;;16.35;89.31;100598.50;6272896;28;20060;-76
2021/07/29 04:19:06;;;;;;;4.47;2.13;;;;;;;16.34;88.85;100602.97;6273112;28;20044;-76
2021/07/29 04:22:09;;;;;;;7.15;2.60;;;;;;;16.38;87.86;100611.53;6272962;28;20060;-76
2021/07/29 04:25:10;;;;;;;7.38;2.40;;;;;;;16.38;87.73;100608.88;6272769;28;20056;-76
2021/07/29 04:28:12;;;;;;;5.40;2.28;;;;;;;16.41;87.36;100614.78;6272793;28;20045;-76
2021/07/29 04:31:13;;;;;;;3.55;2.17;;;;;;;16.39;87.67;100611.41;6272507;28;20048;-76
2021/07/29 04:34:14;;;;;;;4.97;2.28;;;;;;;16.42;87.75;100615.63;6263003;28;20471;-76
2021/07/29 04:37:17;;;;;;;4.05;2.00;;;;;;;16.44;88.41;100616.34;6272757;28;20057;-76
2021/07/29 04:40:19;;;;;;;4.90;2.35;;;;;;;16.44;86.84;100630.47;6272258;28;20040;-76
2021/07/29 04:43:20;;;;;;;10.02;2.47;;;;;;;16.45;87.73;100618.88;6262685;28;20531;-76
2021/07/29 04:46:22;;;;;;;4.30;2.20;;;;;;;16.43;87.96;100618.16;6251979;28;20046;-75
2021/07/29 04:49:23;;;;;;;5.20;2.53;;;;;;;16.43;87.00;100615.50;6247420;28;20045;-76
2021/07/29 04:52:26;;;;;;;8.15;2.30;;;;;;;16.44;87.23;100619.84;6247579;28;20050;-76
2021/07/29 04:55:27;;;;;;;8.27;2.70;;;;;;;16.49;87.81;100624.78;6247366;28;20052;-76
2021/07/29 04:58:28;;;;;;;3.15;1.90;;;;;;;16.47;87.28;100619.59;6247328;28;20538;-77
2021/07/29 05:01:30;;;;;;;3.72;2.30;;;;;;;16.45;88.06;100621.53;6247136;28;20053;-76
2021/07/29 05:04:31;;;;;;;7.68;2.50;;;;;;;16.44;86.75;100621.63;6247155;28;20049;-76
2021/07/29 05:07:34;;;;;;;4.28;2.08;;;;;;;16.38;86.77;100619.50;6247502;28;20053;-76
2021/07/29 05:10:35;;;;;;;6.50;2.13;;;;;;;16.40;87.48;100628.19;6246914;28;20504;-76
2021/07/29 05:13:37;;;;;;;6.47;2.28;;;;;;;16.43;88.09;100617.31;6247280;28;20045;-76
2021/07/29 05:16:39;;;;;;;5.75;2.55;;;;;;;16.35;87.66;100623.25;6246758;28;20420;-76
2021/07/29 05:19:40;;;;;;;6.70;2.22;;;;;;;16.40;86.88;100612.28;6247098;28;20052;-76
2021/07/29 05:22:43;;;;;;;9.23;2.65;;;;;;;16.37;87.04;100620.47;6246818;28;20049;-75
2021/07/29 05:25:44;;;;;;;6.13;2.30;;;;;;;16.32;87.05;100625.28;6246989;28;20049;-76
2021/07/29 05:28:47;;;;;;;6.60;2.05;;;;;;;16.30;87.95;100622.75;6247010;28;20053;-76
2021/07/29 05:31:48;;;;;;;12.77;2.45;;;;;;;16.31;87.28;100618.31;6246758;28;20527;-76
2021/07/29 05:34:49;;;;;;;7.50;2.13;;;;;;;16.35;86.25;100625.03;6246880;28;20041;-76
2021/07/29 05:37:52;;;;;;;6.30;2.35;;;;;;;16.40;85.08;100622.88;6246535;28;20057;-76
2021/07/29 05:40:57;;;;;;;9.98;2.90;;;;;;;16.45;85.12;100621.53;6246517;28;20045;-75
2021/07/29 05:43:58;;;;;;;9.98;2.63;;;;;;;16.48;85.92;100615.97;6246388;28;20068;-76
2021/07/29 05:47:00;;;;;;;7.85;2.33;;;;;;;16.46;85.62;100614.41;6246484;28;20056;-76
2021/07/29 05:50:02;;;;;;;5.50;2.45;;;;;;;16.50;84.50;100623.81;6246492;28;20045;-76
2021/07/29 05:53:04;;;;;;;20.08;2.60;;;;;;;16.57;84.21;100618.84;6246295;28;20065;-76
2021/07/29 05:56:06;;;;;;;6.43;2.17;;;;;;;16.56;83.49;100625.97;6250277;28;20050;-76
2021/07/29 05:59:07;;;;;;;9.02;3.10;;;;;;;16.58;83.36;100616.09;6251720;28;20052;-76
2021/07/29 06:02:08;;;;;;;6.65;2.40;;;;;;;16.60;83.32;100627.41;6251398;28;20488;-76
2021/07/29 06:05:10;;;;;;;11.15;2.83;;;;;;;16.60;82.67;100622.09;6251770;28;20053;-76
2021/07/29 06:08:13;;;;;;;6.90;2.42;;;;;;;16.59;82.84;100617.78;6251326;28;20060;-76
2021/07/29 06:11:14;;;;;;;9.73;2.78;;;;;;;16.63;83.52;100621.03;6250805;28;20509;-75
2021/07/29 06:14:16;;;;;;;14.02;2.80;;;;;;;16.63;84.05;100616.56;6251397;28;20053;-76
2021/07/29 06:17:17;;;;;;;6.82;2.83;;;;;;;16.63;82.42;100629.00;6251112;28;20053;-76
2021/07/29 06:20:19;;;;;;;17.80;3.33;;;;;;;16.68;82.02;100625.00;6251087;28;20052;-76
2021/07/29 06:23:21;;;;;;;9.05;3.20;;;;;;;16.71;82.14;100627.41;6251480;28;20072;-76
2021/07/29 06:26:23;;;;;;;9.73;3.13;;;;;;;16.84;81.87;100629.91;6262299;28;20056;-76
2021/07/29 06:29:24;;;;;;;10.55;2.75;;;;;;;16.87;79.09;100632.34;6270879;28;20451;-78
2021/07/29 06:32:26;;;;;;;9.27;2.72;;;;;;;16.85;80.77;100628.97;6275537;28;20069;-76
2021/07/29 06:35:28;;;;;;;5.13;2.55;;;;;;;16.93;80.09;100615.91;6271866;28;20049;-76
2021/07/29 06:38:31;;;;;;;6.60;2.70;;;;;;;16.97;79.11;100616.50;6260039;28;20431;-76
2021/07/29 06:41:32;;;;;;;14.13;2.90;;;;;;;16.94;78.46;100625.56;6259848;28;20037;-76
2021/07/29 06:44:33;;;;;;;6.63;2.63;;;;;;;16.91;77.91;100632.94;6260162;28;20057;-80
2021/07/29 06:47:35;;;;;;;6.70;2.72;;;;;;;16.97;77.57;100619.97;6256054;28;20045;-76
2021/07/29 06:50:36;;;;;;;5.93;2.28;;;;;;;16.97;76.75;100635.91;6265193;28;20053;-76
2021/07/29 06:53:39;;;;;;;11.27;2.92;;;;;;;16.97;75.96;100646.53;6262002;28;20045;-76
2021/07/29 06:56:40;;;;;;;11.05;2.63;;;;;;;16.96;76.90;100649.31;6257430;28;20056;-76
2021/07/29 06:59:41;;;;;;;11.93;2.85;;;;;;;17.03;77.25;100631.91;6250466;28;20145;-76
2021/07/29 07:02:43;;;;;;;11.57;3.00;;;;;;;17.13;76.80;100639.97;6249806;28;20072;-76
2021/07/29 07:05:46;;;;;;;9.70;2.80;;;;;;;17.22;76.32;100637.41;6249278;28;20056;-77
2021/07/29 07:08:49;;;;;;;9.88;3.25;;;;;;;17.28;75.10;100636.03;6249903;28;20060;-76
2021/07/29 07:11:50;;;;;;;6.78;2.63;;;;;;;17.21;74.58;100641.03;6249583;28;20046;-75
2021/07/29 07:14:51;;;;;;;9.95;2.63;;;;;;;17.29;74.82;100645.69;6250253;28;20057;-76
2021/07/29 07:17:54;;;;;;;7.93;2.78;;;;;;;17.28;75.07;100641.34;6249550;28;20057;-76
2021/07/29 07:21:03;;;;;;;11.70;2.80;;;;;;;17.25;74.37;100641.59;6249801;28;20052;-76
2021/07/29 07:24:07;;;;;;;11.52;3.17;;;;;;;17.22;73.81;100641.88;6249495;28;20413;-76
2021/07/29 07:27:08;;;;;;;8.70;2.63;;;;;;;17.31;73.89;100645.59;6249473;28;20065;-76
2021/07/29 07:30:11;;;;;;;6.18;2.88;;;;;;;17.45;74.57;100640.78;6249282;28;20448;-76
2021/07/29 07:33:12;;;;;;;12.27;2.90;;;;;;;17.59;73.84;100663.56;6249143;28;20068;-76
2021/07/29 07:36:16;;;;;;;10.05;2.90;;;;;;;17.65;71.38;100662.19;6255862;28;20060;-75
2021/07/29 07:39:19;;;;;;;11.82;3.13;;;;;;;17.52;71.37;100665.03;6270269;28;20048;-76
2021/07/29 07:42:20;;;;;;;14.43;3.13;;;;;;;17.60;71.17;100659.91;6265303;28;20052;-76
2021/07/29 07:45:21;;;;;;;10.23;2.90;;;;;;;17.50;71.20;100656.34;6249247;28;20049;-76
2021/07/29 07:48:23;;;;;;;9.95;2.53;;;;;;;17.48;71.53;100653.81;6248997;28;20049;-75
2021/07/29 07:51:24;;;;;;;9.10;2.58;;;;;;;17.54;70.23;100652.47;6257165;28;20049;-75
2021/07/29 07:54:27;;;;;;;9.25;3.00;;;;;;;17.58;69.71;100643.28;6268175;28;20496;-75
2021/07/29 07:57:28;;;;;;;10.05;2.65;;;;;;;17.56;70.12;100652.34;6273464;28;20045;-75
2021/07/29 08:00:30;;;;;;;9.18;2.67;;;;;;;17.44;70.13;100647.09;6270146;28;20381;-75
2021/07/29 08:03:31;;;;;;;12.05;2.00;;;;;;;17.52;69.69;100648.25;6268740;28;20053;-75
2021/07/29 08:06:33;;;;;;;8.05;2.10;;;;;;;17.58;70.13;100648.59;6273281;28;20507;-75
2021/07/29 08:09:35;;;;;;;9.48;1.73;;;;;;;17.60;70.05;100649.28;6273066;28;20045;-75
2021/07/29 08:12:37;;;;;;;12.35;2.70;;;;;;;17.74;65.85;100643.66;6273220;28;20045;-75
2021/07/29 08:15:38;;;;;;;11.15;2.53;;;;;;;17.75;64.46;100642.69;6273758;28;20061;-78
2021/07/29 08:18:39;;;;;;;7.82;2.10;;;;;;;17.84;67.16;100638.41;6273492;28;20072;-78
2021/07/29 08:21:41;;;;;;;12.38;2.72;;;;;;;17.94;66.85;100633.13;6266381;28;20492;-78
2021/07/29 08:24:43;;;;;;;6.57;1.70;;;;;;;18.09;65.20;100628.34;6257501;28;20059;-78
2021/07/29 08:27:45;;;;;;;9.45;2.30;;;;;;;18.12;64.76;100636.91;6273453;28;20049;-77
2021/07/29 08:30:46;;;;;;;7.80;1.98;;;;;;;17.98;65.01;100631.91;6248582;28;20055;-77
2021/07/29 08:33:48;;;;;;;9.63;1.95;;;;;;;17.85;64.22;100632.13;6248520;28;20504;-78
2021/07/29 08:36:49;;;;;;;7.00;1.98;;;;;;;17.82;65.16;100645.69;6251380;28;20041;-77
2021/07/29 08:39:52;;;;;;;4.40;1.80;;;;;;;17.78;66.54;100649.56;6273749;28;20052;-77
2021/07/29 08:42:53;;;;;;;13.35;2.55;;;;;;;17.62;68.28;100647.34;6273236;28;20045;-78
2021/07/29 08:45:55;;;;;;;11.32;1.63;;;;;;;17.63;68.37;100648.19;6273113;28;20056;-79
2021/07/29 08:48:56;;;;;;;12.85;2.28;;;;;;;17.72;68.95;100642.94;6273285;28;20053;-77
2021/07/29 08:51:57;;;;;;;7.70;1.85;;;;;;;17.85;66.09;100649.88;6271332;28;20041;-81
2021/07/29 08:55:01;;;;;;;7.38;1.50;;;;;;;17.90;66.85;100645.88;6272378;28;20048;-77
2021/07/29 08:58:03;;;;;;;8.85;2.35;;;;;;;18.02;65.48;100640.47;6271849;28;20064;-78
2021/07/29 09:01:07;;;;;;;4.70;1.85;;;;;;;18.12;65.16;100633.38;6265905;28;20528;-77
2021/07/29 09:04:13;;;;;;;10.38;2.30;;;;;;;18.23;63.50;100641.28;6270217;28;20131;-79
2021/07/29 09:07:17;;;;;;;8.70;2.03;;;;;;;18.17;62.62;100641.81;6272431;28;20056;-78
2021/07/29 09:10:23;;;;;;;5.95;1.70;;;;;;;18.10;63.15;100662.78;6273050;28;20057;-81
2021/07/29 09:13:24;;;;;;;6.03;1.40;;;;;;;18.05;63.72;100642.88;6264745;28;20052;-77
2021/07/29 09:16:25;;;;;;;9.07;1.70;;;;;;;18.25;63.59;100642.81;6272422;28;20379;-77
2021/07/29 09:19:32;;;;;;;5.82;1.70;;;;;;;18.47;63.15;100643.59;6272073;28;20516;-77
2021/07/29 09:22:34;;;;;;;9.23;1.92;;;;;;;18.57;63.29;100644.47;6262513;28;20041;-76
2021/07/29 09:25:36;;;;;;;6.10;1.67;;;;;;;18.79;59.93;100646.09;6263387;28;20045;-77
2021/07/29 09:28:39;;;;;;;7.60;1.42;;;;;;;18.83;60.63;100650.16;6262230;28;20045;-76
2021/07/29 09:31:40;;;;;;;7.28;1.90;;;;;;;18.90;60.92;100653.13;6271403;28;20048;-76
2021/07/29 09:34:46;;;;;;;9.40;1.70;;;;;;;18.99;59.11;100642.50;6264860;28;20041;-76
2021/07/29 09:37:51;;;;;;;9.27;1.90;;;;;;;19.18;59.12;100654.97;6249303;28;20057;-78
2021/07/29 09:40:59;;;;;;;4.35;1.60;;;;;;;19.18;57.23;100635.50;6263739;28;20568;-75
2021/07/29 09:44:00;;;;;;;7.07;1.73;;;;;;;19.06;57.48;100639.25;6271611;28;20049;-77
2021/07/29 09:47:03;;;;;;;7.00;1.83;;;;;;;19.00;57.70;100644.16;6265064;28;20492;-79
2021/07/29 09:50:06;;;;;;;8.45;1.83;;;;;;;18.92;58.87;100643.16;6272407;28;20424;-77
2021/07/29 09:53:08;;;;;;;8.40;2.08;;;;;;;18.68;59.76;100660.34;6263136;28;20064;-76
2021/07/29 09:56:13;;;;;;;4.07;1.52;;;;;;;18.64;58.88;100656.25;6261235;28;20135;-75
2021/07/29 09:59:14;;;;;;;10.90;2.05;;;;;;;18.61;59.08;100653.03;6260241;28;20049;-77
2021/07/29 10:02:15;;;;;;;6.63;1.50;;;;;;;18.76;60.00;100654.38;6248783;28;20049;-78
2021/07/29 10:05:21;;;;;;;8.35;1.50;;;;;;;19.00;59.52;100654.81;6247454;28;20049;-77
2021/07/29 10:08:29;;;;;;;11.10;1.42;;;;;;;19.10;56.92;100651.31;6248319;28;20057;-80
2021/07/29 10:11:35;;;;;;;7.38;1.85;;;;;;;19.32;56.70;100650.22;6247545;28;20049;-76
2021/07/29 10:14:46;;;;;;;13.30;1.50;;;;;;;19.49;57.25;100653.00;6248206;28;20504;-78
2021/07/29 10:18:06;;;;;;;9.90;1.58;;;;;;;19.57;56.07;100643.44;6249227;28;20056;-78
2021/07/29 10:21:32;;;;;;;16.58;1.55;;;;;;;19.47;55.90;100652.28;6248289;28;20108;-79
2021/07/29 10:24:52;;;;;;;6.68;1.50;;;;;;;19.56;55.47;100652.44;6237946;28;20049;-80
2021/07/29 10:28:22;;;;;;;6.40;1.65;;;;;;;19.76;57.17;100665.63;6248021;28;20144;-77
2021/07/29 10:31:24;;;;;;;4.60;1.40;;;;;;;19.83;53.64;100657.06;6246709;28;20094;-79
2021/07/29 10:34:27;;;;;;;8.45;1.30;;;;;;;19.91;54.13;100654.50;6246883;28;20444;-79
2021/07/29 10:37:42;;;;;;;5.22;1.40;;;;;;;19.96;49.91;100655.75;6245856;28;20053;-82
2021/07/29 10:40:44;;;;;;;12.02;1.20;;;;;;;20.06;50.93;100662.88;6248460;28;20653;-77
2021/07/29 10:43:47;;;;;;;3.65;1.13;;;;;;;20.04;51.85;100651.53;6251508;28;20089;-77
2021/07/29 10:47:02;;;;;;;10.52;1.50;;;;;;;20.08;51.50;100664.44;6250884;28;20046;-79
2021/07/29 10:50:19;;;;;;;13.73;1.45;;;;;;;19.99;50.81;100655.47;6252213;28;20088;-79
2021/07/29 10:53:22;;;;;;;11.93;1.92;;;;;;;19.98;50.62;100659.13;6253169;28;20052;-78
2021/07/29 10:56:25;;;;;;;7.65;1.92;;;;;;;19.83;52.50;100657.88;6260924;28;20057;-79
2021/07/29 10:59:29;;;;;;;7.75;1.63;;;;;;;19.79;53.06;100650.31;6254479;28;20053;-79
2021/07/29 11:02:45;;;;;;;7.45;1.30;;;;;;;20.03;54.40;100650.69;6273292;28;20048;-77
2021/07/29 11:05:54;;;;;;;6.35;1.55;;;;;;;20.09;52.03;100651.94;6277114;28;20103;-79
2021/07/29 11:08:56;;;;;;;5.60;1.33;;;;;;;20.27;51.60;100645.69;6278541;28;20060;-77
2021/07/29 11:11:58;;;;;;;7.70;1.52;;;;;;;20.23;52.24;100649.63;6277215;28;20489;-76
2021/07/29 11:15:01;;;;;;;10.95;1.60;;;;;;;20.18;52.15;100646.56;6275394;28;20531;-77
2021/07/29 11:18:11;;;;;;;6.22;1.40;;;;;;;20.02;51.92;100665.84;6276444;28;20076;-76
2021/07/29 11:21:14;;;;;;;9.73;1.77;;;;;;;19.91;51.19;100674.03;6276530;28;20049;-81
2021/07/29 11:24:24;;;;;;;9.65;1.80;;;;;;;20.26;51.74;100676.03;6275479;28;20171;-77
2021/07/29 11:27:30;;;;;;;8.20;1.55;;;;;;;20.52;49.60;100660.19;6278757;28;20132;-79
2021/07/29 11:30:42;;;;;;;8.50;1.58;;;;;;;20.65;48.39;100659.84;6276401;28;20178;-78
2021/07/29 11:33:49;;;;;;;6.47;1.70;;;;;;;20.66;48.17;100660.69;6277959;28;20184;-77
2021/07/29 11:36:53;;;;;;;10.13;1.50;;;;;;;20.52;50.11;100670.03;6275054;28;20049;-77
2021/07/29 11:39:55;;;;;;;4.30;1.20;;;;;;;20.60;46.17;100654.13;6275787;28;20223;-77
2021/07/29 11:42:56;;;;;;;3.22;1.15;;;;;;;20.85;47.33;100655.25;6274719;28;20052;-78
2021/07/29 11:46:06;;;;;;;4.82;1.23;;;;;;;20.93;46.05;100649.13;6275898;28;20053;-78
2021/07/29 11:49:08;;;;;;;8.85;1.45;;;;;;;20.88;46.97;100660.28;6276623;28;20053;-82
2021/07/29 11:52:10;;;;;;;8.05;1.60;;;;;;;21.59;46.06;100647.94;6278133;28;20049;-79
2021/07/29 11:55:14;;;;;;;9.07;1.63;;;;;;;21.61;42.96;100657.47;6277033;28;20052;-77
2021/07/29 11:58:16;;;;;;;8.20;1.63;;;;;;;21.88;44.12;100651.13;6276068;28;20140;-76
2021/07/29 12:01:19;;;;;;;5.35;1.40;;;;;;;22.11;44.72;100650.59;6277431;28;20504;-78
2021/07/29 12:04:22;;;;;;;7.95;1.98;;;;;;;22.10;42.77;100644.41;6276747;28;20057;-76
2021/07/29 12:07:23;;;;;;;9.85;1.60;;;;;;;21.90;42.64;100648.31;6277380;28;20056;-77
2021/07/29 12:10:27;;;;;;;7.43;1.73;;;;;;;22.04;42.02;100642.38;6280752;28;20057;-77
2021/07/29 12:13:30;;;;;;;7.60;1.45;;;;;;;22.58;39.96;100672.47;6279944;28;20048;-80
2021/07/29 12:16:44;;;;;;;10.40;1.50;;;;;;;22.78;41.53;100657.78;6278008;28;20139;-75
2021/07/29 12:19:55;;;;;;;5.68;1.50;;;;;;;22.79;41.33;100645.22;6274105;28;20052;-75
2021/07/29 12:23:09;;;;;;;12.23;1.80;;;;;;;23.38;41.16;100642.47;6273584;28;20513;-75
2021/07/29 12:26:12;;;;;;;4.65;1.42;;;;;;;23.00;41.18;100644.81;6273717;28;20056;-77
2021/07/29 12:29:40;;;;;;;3.53;1.25;;;;;;;23.30;40.38;100662.13;6276724;28;20443;-76
2021/07/29 12:32:42;;;;;;;7.30;1.77;;;;;;;23.37;39.47;100641.66;6275518;28;20524;-77
2021/07/29 12:35:56;;;;;;;6.65;1.20;;;;;;;23.23;39.19;100645.84;6276033;28;20063;-79
2021/07/29 12:39:01;;;;;;;3.05;1.08;;;;;;;23.18;39.95;100645.50;6275070;28;20041;-77
2021/07/29 12:42:22;;;;;;;6.38;1.20;;;;;;;23.44;41.92;100656.06;6274272;28;20048;-79
2021/07/29 12:45:23;;;;;;;8.73;1.30;;;;;;;23.57;38.20;100649.34;6275082;28;20045;-76
2021/07/29 12:48:27;;;;;;;5.57;1.27;;;;;;;23.52;38.41;100656.06;6275245;28;20061;-79
2021/07/29 12:51:37;;;;;;;7.35;1.33;;;;;;;23.04;38.20;100647.00;6274200;28;20048;-87
2021/07/29 12:54:53;;;;;;;;;;;;;;;22.72;41.00;100655.75;6276801;28;20045;-79
2021/07/29 12:57:57;;;;;;;4.32;1.42;;;;;;;23.26;42.17;100650.03;6276189;28;19924;-82
2021/07/29 13:00:58;;;;;;;6.80;1.65;;;;;;;23.19;40.80;100649.00;6275877;28;20101;-79
2021/07/29 13:04:03;;;;;;;7.00;1.80;;;;;;;23.23;41.65;100645.84;6275525;28;20056;-77
2021/07/29 13:07:04;;;;;;;4.20;1.33;;;;;;;22.92;40.38;100655.50;6274197;28;20136;-79
2021/07/29 13:10:07;;;;;;;9.40;1.85;;;;;;;22.37;41.08;100654.13;6274006;28;20511;-84
2021/07/29 13:13:11;;;;;;;11.25;1.58;;;;;;;22.03;40.70;100648.75;6273503;28;20056;-77
2021/07/29 13:16:12;;;;;;;7.88;1.50;;;;;;;21.84;42.49;100652.44;6272977;28;20045;-75
2021/07/29 13:19:15;;;;;;;9.73;1.83;;;;;;;21.60;43.37;100660.31;6272920;28;20515;-75
2021/07/29 13:22:16;;;;;;;7.70;1.92;;;;;;;21.24;43.59;100661.13;6274396;28;20052;-80
2021/07/29 13:25:19;;;;;;;9.65;1.65;;;;;;;21.17;45.05;100661.91;6271227;28;20057;-77
2021/07/29 13:28:22;;;;;;;7.20;1.75;;;;;;;21.84;43.69;100673.84;6251822;28;20416;-77
2021/07/29 13:31:24;;;;;;;10.32;1.50;;;;;;;22.10;42.57;100667.66;6247986;28;20645;-74
2021/07/29 13:34:28;;;;;;;6.95;1.65;;;;;;;22.02;42.10;100661.25;6247667;28;20053;-75
2021/07/29 13:37:29;;;;;;;6.45;1.50;;;;;;;22.60;42.36;100661.56;6259164;28;20053;-74
2021/07/29 13:40:31;;;;;;;7.63;2.05;;;;;;;22.69;42.49;100660.59;6268800;28;20048;-78
2021/07/29 13:43:33;;;;;;;8.60;1.63;;;;;;;22.43;42.38;100668.69;6268157;28;20069;-75
2021/07/29 13:46:34;;;;;;;11.80;2.40;;;;;;;22.22;42.53;100658.41;6271965;28;20053;-85
2021/07/29 13:49:37;;;;;;;6.32;1.58;;;;;;;21.69;43.52;100651.34;6275656;28;20052;-84
2021/07/29 13:52:38;;;;;;;12.65;1.75;;;;;;;21.54;44.79;100659.09;6274211;28;20045;-77
2021/07/29 13:55:40;;;;;;;12.55;1.60;;;;;;;21.45;43.75;100662.69;6273739;28;20056;-76
2021/07/29 13:58:42;;;;;;;8.57;1.85;;;;;;;21.40;44.46;100667.66;6271910;28;20071;-76
2021/07/29 14:01:43;;;;;;;13.13;2.08;;;;;;;;;;6272858;28;20423;-77
2021/07/29 14:04:45;;;;;;;9.40;1.90;;;;;;;22.02;43.64;100676.47;6273329;28;20059;-76
2021/07/29 14:07:48;;;;;;;9.55;1.88;;;;;;;21.99;43.03;100672.28;6274316;28;20539;-77
2021/07/29 14:10:49;;;;;;;12.65;2.03;;;;;;;22.02;43.88;100679.16;6273079;28;20045;-78